createdAt,value
2023-04-15T00:02:14.842Z,1.30
2023-04-15T00:04:41.533Z,1.13
2023-04-15T00:07:08.692Z,1.40
2023-04-15T00:09:35.334Z,1.17
2023-04-15T00:12:02.111Z,1.20
2023-04-15T00:14:28.815Z,1.55
2023-04-15T00:16:57.366Z,1.50
2023-04-15T00:19:24.773Z,1.58
2023-04-15T00:21:51.518Z,1.45
2023-04-15T00:24:18.200Z,1.60
2023-04-15T00:26:44.828Z,1.30
2023-04-15T00:29:11.450Z,1.42
2023-04-15T00:31:38.378Z,1.50
2023-04-15T00:34:05.003Z,1.77
2023-04-15T00:36:32.106Z,2.53
2023-04-15T00:38:59.182Z,3.63
2023-04-15T00:41:26.017Z,3.15
2023-04-15T00:43:52.858Z,2.42
2023-04-15T00:46:21.376Z,1.75
2023-04-15T00:48:48.216Z,1.92
2023-04-15T01:11:01.570Z,2.90
2023-04-15T01:13:28.745Z,3.20
2023-04-15T01:15:57.805Z,2.47
2023-04-15T01:18:24.661Z,2.40
2023-04-15T01:20:51.721Z,2.70
2023-04-15T01:23:18.689Z,2.80
2023-04-15T01:25:46.693Z,2.67
2023-04-15T01:28:13.381Z,2.72
2023-04-15T01:30:40.047Z,2.60
2023-04-15T01:33:06.776Z,2.72
2023-04-15T01:35:33.673Z,3.30
2023-04-15T01:38:06.258Z,2.72
2023-04-15T01:40:33.804Z,3.53
2023-04-15T01:43:01.277Z,2.97
2023-04-15T01:45:28.851Z,3.75
2023-04-15T01:47:55.865Z,3.63
2023-04-15T01:50:22.553Z,4.90
2023-04-15T01:52:49.157Z,4.25
2023-04-15T01:55:16.131Z,4.53
2023-04-15T01:57:42.797Z,4.43
2023-04-15T02:00:09.857Z,4.55
2023-04-15T02:02:36.710Z,4.97
2023-04-15T02:05:05.639Z,5.63
2023-04-15T02:07:32.477Z,5.47
2023-04-15T02:09:59.246Z,5.78
2023-04-15T02:12:25.999Z,5.90
2023-04-15T02:14:52.665Z,5.22
2023-04-15T02:17:19.351Z,5.15
2023-04-15T02:19:45.980Z,6.78
2023-04-15T02:22:18.457Z,5.82
2023-04-15T02:24:46.659Z,5.50
2023-04-15T02:27:18.052Z,5.00
2023-04-15T02:29:48.440Z,4.50
2023-04-15T02:32:15.099Z,5.05
2023-04-15T02:34:42.913Z,4.50
2023-04-15T02:37:12.123Z,3.47
2023-04-15T02:39:39.042Z,3.70
2023-04-15T02:42:06.175Z,4.00
2023-04-15T02:44:34.121Z,4.30
2023-04-15T02:47:00.773Z,4.05
2023-04-15T02:49:29.828Z,3.80
2023-04-15T02:51:58.178Z,3.72
2023-04-15T02:54:25.044Z,3.58
2023-04-15T02:56:55.299Z,3.28
2023-04-15T02:59:22.047Z,3.35
2023-04-15T03:01:48.772Z,3.30
2023-04-15T03:04:15.691Z,4.30
2023-04-15T03:06:42.594Z,4.68
2023-04-15T03:09:09.472Z,4.10
2023-04-15T03:11:40.655Z,3.15
2023-04-15T03:14:07.315Z,3.05
2023-04-15T03:16:33.946Z,3.35
2023-04-15T03:19:00.962Z,2.95
2023-04-15T03:21:27.903Z,4.00
2023-04-15T03:23:54.476Z,3.83
2023-04-15T03:26:31.737Z,3.97
2023-04-15T03:28:58.569Z,4.18
2023-04-15T03:31:25.541Z,4.40
2023-04-15T03:33:52.111Z,4.35
2023-04-15T03:36:18.854Z,4.28
2023-04-15T03:38:45.826Z,4.25
2023-04-15T03:41:13.193Z,6.05
2023-04-15T03:43:39.788Z,6.25
2023-04-15T03:46:06.876Z,5.20
2023-04-15T03:48:33.548Z,4.70
2023-04-15T03:51:00.157Z,5.75
2023-04-15T03:53:26.776Z,5.55
2023-04-15T03:55:53.472Z,5.47
2023-04-15T03:58:20.049Z,5.13
2023-04-15T04:00:46.715Z,5.22
2023-04-15T04:03:13.796Z,6.85
2023-04-15T04:05:41.612Z,5.43
2023-04-15T04:08:08.363Z,6.18
2023-04-15T04:10:35.214Z,5.82
2023-04-15T04:13:02.100Z,4.53
2023-04-15T04:15:28.697Z,4.20
2023-04-15T04:17:55.581Z,4.57
2023-04-15T04:20:22.204Z,5.18
2023-04-15T04:22:48.843Z,4.80
2023-04-15T04:25:15.467Z,5.32
2023-04-15T04:27:42.276Z,4.70
2023-04-15T04:30:09.138Z,4.75
2023-04-15T04:32:35.854Z,6.22
2023-04-15T04:35:03.734Z,5.85
2023-04-15T04:37:30.456Z,5.85
2023-04-15T04:39:57.061Z,6.10
2023-04-15T04:42:23.729Z,5.85
2023-04-15T04:44:50.394Z,10.70
2023-04-15T04:47:17.168Z,6.60
2023-04-15T04:49:43.806Z,4.85
2023-04-15T04:52:10.470Z,6.28
2023-04-15T04:54:37.349Z,5.53
2023-04-15T04:57:03.907Z,5.55
2023-04-15T04:59:30.826Z,5.38
2023-04-15T05:01:57.563Z,5.82
2023-04-15T05:04:24.266Z,6.15
2023-04-15T05:06:51.012Z,5.53
2023-04-15T05:09:17.974Z,4.97
2023-04-15T05:11:44.594Z,5.60
2023-04-15T05:14:11.209Z,5.70
2023-04-15T05:16:38.027Z,5.68
2023-04-15T05:19:04.647Z,5.72
2023-04-15T05:21:31.850Z,14.63
2023-04-15T05:23:58.465Z,8.38
2023-04-15T05:26:25.171Z,6.93
2023-04-15T05:28:51.802Z,5.53
2023-04-15T05:31:18.562Z,5.53
2023-04-15T05:33:45.301Z,6.38
2023-04-15T05:36:12.224Z,5.75
2023-04-15T05:38:38.919Z,5.45
2023-04-15T05:41:05.836Z,5.72
2023-04-15T05:43:32.593Z,5.95
2023-04-15T05:45:59.275Z,6.22
2023-04-15T05:48:25.973Z,5.78
2023-04-15T05:50:52.724Z,5.90
2023-04-15T05:53:19.463Z,5.45
2023-04-15T05:55:46.189Z,4.75
2023-04-15T05:58:13.081Z,5.93
2023-04-15T06:00:40.485Z,5.50
2023-04-15T06:03:07.917Z,7.10
2023-04-15T06:05:34.753Z,6.15
2023-04-15T06:08:01.631Z,6.00
2023-04-15T06:10:28.370Z,6.15
2023-04-15T06:12:55.082Z,6.53
2023-04-15T06:15:21.766Z,7.57
2023-04-15T06:17:48.443Z,5.47
2023-04-15T06:20:15.244Z,7.50
2023-04-15T06:22:42.021Z,7.30
2023-04-15T06:25:09.416Z,6.75
2023-04-15T06:27:36.087Z,5.93
2023-04-15T06:30:02.849Z,6.78
2023-04-15T06:32:30.146Z,5.88
2023-04-15T06:34:56.823Z,8.90
2023-04-15T06:37:23.497Z,6.32
2023-04-15T06:39:50.089Z,5.70
2023-04-15T06:42:16.808Z,6.57
2023-04-15T06:44:43.701Z,5.03
2023-04-15T06:47:10.320Z,5.50
2023-04-15T06:49:37.142Z,5.53
2023-04-15T06:52:05.047Z,4.70
2023-04-15T06:54:32.181Z,5.15
2023-04-15T06:56:58.827Z,5.20
2023-04-15T06:59:25.487Z,4.93
2023-04-15T07:01:52.239Z,4.47
2023-04-15T07:04:18.963Z,4.28
2023-04-15T07:06:46.176Z,4.80
2023-04-15T07:09:12.898Z,4.55
2023-04-15T07:11:39.513Z,4.32
2023-04-15T07:14:06.781Z,6.90
2023-04-15T07:16:33.522Z,8.57
2023-04-15T07:19:00.372Z,5.55
2023-04-15T07:21:27.755Z,5.75
2023-04-15T07:23:54.447Z,5.85
2023-04-15T10:52:17.058Z,0.70
2023-04-15T11:00:14.873Z,1.50
2023-04-15T11:02:55.135Z,0.90
2023-04-15T12:06:14.144Z,1.15
2023-04-15T12:08:56.311Z,1.23
2023-04-15T12:11:33.349Z,0.80
2023-04-15T12:14:13.789Z,1.80
2023-04-15T12:42:25.554Z,1.67
2023-04-15T12:44:52.279Z,3.22
2023-04-15T12:47:29.222Z,1.13
2023-04-15T12:49:55.984Z,4.20
2023-04-15T12:52:24.719Z,0.82
2023-04-15T12:55:27.879Z,1.30
2023-04-15T12:57:55.049Z,1.20
2023-04-15T13:02:49.231Z,2.50
2023-04-15T13:05:16.199Z,0.63
2023-04-15T13:17:41.263Z,0.70
2023-04-15T13:20:09.023Z,1.60
2023-04-15T13:22:35.628Z,0.45
2023-04-15T13:25:02.184Z,1.17
2023-04-15T13:27:28.892Z,0.93
2023-04-15T13:29:55.755Z,0.70
2023-04-15T13:32:22.457Z,1.02
2023-04-15T13:34:49.057Z,0.82
2023-04-15T13:37:15.824Z,0.80
2023-04-15T13:39:42.557Z,1.50
2023-04-15T13:42:09.315Z,1.17
2023-04-15T13:44:36.024Z,1.13
2023-04-15T13:47:02.604Z,0.80
2023-04-15T13:49:29.632Z,0.63
2023-04-15T13:51:58.858Z,1.20
2023-04-15T13:54:25.550Z,0.95
2023-04-15T13:57:05.700Z,1.05
2023-04-15T13:59:34.998Z,1.30
2023-04-15T14:02:02.067Z,1.50
2023-04-15T14:04:28.858Z,1.15
2023-04-15T14:06:56.431Z,1.20
2023-04-15T14:09:26.150Z,1.70
2023-04-15T14:19:13.120Z,1.50
2023-04-15T14:21:39.776Z,1.27
2023-04-15T14:24:08.262Z,2.58
2023-04-15T14:26:34.886Z,3.42
2023-04-15T14:29:01.574Z,1.75
2023-04-15T14:31:28.398Z,1.90
2023-04-15T14:33:57.956Z,1.27
2023-04-15T14:36:27.640Z,3.13
2023-04-15T14:38:57.065Z,1.67
2023-04-15T14:41:24.035Z,2.20
2023-04-15T14:43:50.764Z,2.70
2023-04-15T14:46:17.505Z,1.50
2023-04-15T14:48:44.280Z,1.20
2023-04-15T14:51:11.118Z,1.45
2023-04-15T14:53:37.828Z,3.17
2023-04-15T14:56:04.678Z,1.83
2023-04-15T14:58:32.822Z,1.27
2023-04-15T15:01:00.117Z,2.03
2023-04-15T15:03:27.120Z,1.50
2023-04-15T15:05:54.296Z,12.82
2023-04-15T15:08:21.115Z,1.70
2023-04-15T15:10:49.759Z,1.50
2023-04-15T15:13:17.827Z,1.60
2023-04-15T15:15:44.679Z,1.50
2023-04-15T15:18:11.587Z,2.17
2023-04-15T15:20:38.571Z,1.70
2023-04-15T15:23:05.270Z,2.38
2023-04-15T15:25:31.951Z,2.10
2023-04-15T15:27:58.680Z,1.40
2023-04-15T15:30:25.550Z,1.40
2023-04-15T15:32:52.326Z,1.40
2023-04-15T15:35:23.143Z,1.70
2023-04-15T15:37:49.807Z,1.77
2023-04-15T15:40:16.452Z,1.42
2023-04-15T15:42:43.137Z,2.00
2023-04-15T15:45:10.217Z,1.35
2023-04-15T15:47:37.040Z,1.38
2023-04-15T15:50:06.017Z,1.70
2023-04-15T15:52:33.042Z,1.30
2023-04-15T15:54:59.825Z,1.42
2023-04-15T15:57:26.529Z,1.83
2023-04-15T16:00:04.772Z,1.50
2023-04-15T16:03:04.254Z,1.58
2023-04-15T16:05:24.714Z,1.70
2023-04-15T16:07:51.516Z,5.55
2023-04-15T16:10:18.128Z,2.25
2023-04-15T16:12:44.814Z,2.13
2023-04-15T16:15:12.561Z,2.60
2023-04-15T16:17:39.268Z,5.10
2023-04-15T16:20:07.081Z,3.67
2023-04-15T16:22:35.022Z,2.08
2023-04-15T16:25:01.809Z,2.90
2023-04-15T16:27:28.764Z,5.40
2023-04-15T16:29:55.341Z,1.92
2023-04-15T16:32:22.057Z,5.57
2023-04-15T16:34:48.776Z,3.45
2023-04-15T16:37:15.533Z,2.45
2023-04-15T16:39:42.236Z,3.30
2023-04-15T16:42:09.712Z,2.70
2023-04-15T16:44:36.326Z,2.30
2023-04-15T16:47:03.251Z,3.28
2023-04-15T16:49:30.399Z,3.47
2023-04-15T16:51:57.708Z,2.92
2023-04-15T16:54:24.367Z,5.05
2023-04-15T16:56:51.184Z,3.70
2023-04-15T16:59:17.802Z,1.80
2023-04-15T17:01:45.436Z,1.50
2023-04-15T17:04:12.083Z,1.88
2023-04-15T17:06:39.102Z,1.70
2023-04-15T17:09:06.001Z,2.33
2023-04-15T17:11:32.994Z,2.03
2023-04-15T17:13:59.673Z,2.05
2023-04-15T17:16:26.621Z,1.80
2023-04-15T17:18:53.303Z,2.08
2023-04-15T17:21:19.905Z,2.58
2023-04-15T17:23:46.801Z,3.47
2023-04-15T17:26:13.469Z,2.00
2023-04-15T17:28:40.074Z,3.40
2023-04-15T17:31:07.247Z,2.65
2023-04-15T17:34:02.053Z,3.58
2023-04-15T17:36:20.582Z,2.30
2023-04-15T17:38:47.251Z,2.90
2023-04-15T17:41:14.108Z,2.20
2023-04-15T17:43:40.729Z,2.30
2023-04-15T17:46:07.918Z,2.55
2023-04-15T17:48:34.706Z,2.47
2023-04-15T17:51:01.353Z,4.05
2023-04-15T17:53:27.953Z,4.07
2023-04-15T17:55:54.876Z,2.95
2023-04-15T17:58:21.652Z,3.97
2023-04-15T18:00:48.345Z,5.43
2023-04-15T18:03:15.472Z,7.15
2023-04-15T18:05:42.730Z,6.03
2023-04-15T18:08:09.894Z,4.75
2023-04-15T18:10:39.211Z,4.03
2023-04-15T18:13:06.490Z,4.65
2023-04-15T18:15:33.475Z,5.68
2023-04-15T18:18:00.544Z,5.78
2023-04-15T18:20:27.921Z,6.03
2023-04-15T18:22:54.739Z,5.00
2023-04-15T18:25:21.505Z,13.10
2023-04-15T18:27:48.237Z,5.30
2023-04-15T18:30:15.125Z,5.00
2023-04-15T18:32:41.925Z,7.75
2023-04-15T18:35:11.753Z,4.90
2023-04-15T18:37:38.654Z,4.30
2023-04-15T18:40:07.246Z,3.50
2023-04-15T18:42:34.050Z,4.97
2023-04-15T18:45:00.956Z,3.38
2023-04-15T18:47:28.009Z,3.10
2023-04-15T18:49:54.699Z,5.57
2023-04-15T18:52:21.547Z,3.83
2023-04-15T18:54:51.378Z,4.40
2023-04-15T18:57:28.472Z,5.55
2023-04-15T19:00:01.545Z,4.97
2023-04-15T19:02:28.394Z,5.65
2023-04-15T19:04:55.556Z,3.75
2023-04-15T19:07:23.454Z,3.03
2023-04-15T19:09:50.241Z,4.05
2023-04-15T19:12:16.831Z,3.65
2023-04-15T19:14:43.457Z,5.93
2023-04-15T19:17:10.288Z,7.00
2023-04-15T19:19:37.087Z,8.52
2023-04-15T19:22:03.695Z,8.73
2023-04-15T19:24:33.883Z,8.82
2023-04-15T19:27:01.765Z,8.13
2023-04-15T19:29:31.481Z,7.45
2023-04-15T19:31:58.252Z,8.52
2023-04-15T19:34:25.195Z,9.80
2023-04-15T19:36:51.974Z,9.13
2023-04-15T19:39:19.743Z,7.55
2023-04-15T19:41:47.341Z,6.18
2023-04-15T19:44:14.256Z,5.05
2023-04-15T19:46:43.614Z,2.88
2023-04-15T19:49:10.954Z,2.72
2023-04-15T19:51:37.582Z,4.63
2023-04-15T19:54:04.238Z,9.13
2023-04-15T19:56:33.606Z,7.72
2023-04-15T19:59:02.149Z,6.05
2023-04-15T20:01:28.963Z,19.35
2023-04-15T20:03:56.077Z,8.10
2023-04-15T20:06:22.942Z,7.15
2023-04-15T20:08:49.795Z,5.65
2023-04-15T20:11:17.177Z,5.65
2023-04-15T20:13:43.896Z,6.57
2023-04-15T20:16:11.849Z,7.60
2023-04-15T20:18:38.485Z,7.55
2023-04-15T20:21:05.117Z,5.95
2023-04-15T20:23:31.858Z,14.48
2023-04-15T20:25:58.512Z,10.85
2023-04-15T20:28:27.535Z,9.05
2023-04-15T20:30:54.162Z,6.97
2023-04-15T20:33:22.361Z,9.23
2023-04-15T20:35:49.008Z,9.63
2023-04-15T20:38:16.393Z,9.20
2023-04-15T20:40:43.450Z,9.32
2023-04-15T20:43:10.286Z,11.27
2023-04-15T20:45:37.273Z,22.75
2023-04-15T20:48:04.221Z,8.57
2023-04-15T20:50:31.253Z,9.55
2023-04-15T20:52:57.873Z,7.82
2023-04-15T20:55:24.512Z,11.32
2023-04-15T20:57:51.382Z,15.93
2023-04-15T21:00:18.071Z,14.65
2023-04-15T21:02:44.780Z,21.13
2023-04-15T21:05:11.523Z,14.40
2023-04-15T21:07:38.156Z,17.98
2023-04-15T21:10:05.054Z,19.90
2023-04-15T21:12:31.688Z,19.67
2023-04-15T21:14:58.342Z,18.55
2023-04-15T21:17:25.162Z,17.70
2023-04-15T21:19:51.825Z,12.20
2023-04-15T21:22:18.409Z,13.98
2023-04-15T21:24:44.959Z,14.48
2023-04-15T21:27:11.566Z,17.30
2023-04-15T21:29:40.387Z,15.77
2023-04-15T21:32:07.129Z,14.43
2023-04-15T21:34:33.936Z,12.30
2023-04-15T21:37:00.650Z,13.82
2023-04-15T21:39:27.287Z,12.80
2023-04-15T21:41:54.036Z,13.63
2023-04-15T21:44:20.675Z,13.85
2023-04-15T21:46:47.318Z,12.63
2023-04-15T21:49:14.160Z,13.05
2023-04-15T21:51:40.960Z,13.80
2023-04-15T21:54:07.702Z,13.15
2023-04-15T21:56:34.331Z,12.35
2023-04-15T21:59:01.217Z,10.88
2023-04-15T22:01:27.910Z,10.73
2023-04-15T22:03:54.822Z,10.93
2023-04-15T22:06:22.032Z,11.07
2023-04-15T22:09:11.358Z,12.38
2023-04-15T22:11:38.024Z,12.27
2023-04-15T22:14:05.803Z,13.40
2023-04-15T22:16:32.454Z,14.43
2023-04-15T22:18:59.097Z,15.38
2023-04-15T22:21:26.685Z,12.35
2023-04-15T22:23:53.414Z,13.85
2023-04-15T22:26:39.909Z,13.70
2023-04-15T22:29:06.953Z,12.98
2023-04-15T22:31:33.725Z,12.48
2023-04-15T22:34:00.284Z,11.68
2023-04-15T22:36:27.432Z,10.82
2023-04-15T22:38:54.175Z,10.65
2023-04-15T22:41:20.997Z,9.77
2023-04-15T22:43:47.642Z,9.30
2023-04-15T22:46:14.617Z,8.95
2023-04-15T22:48:42.532Z,8.98
2023-04-15T22:51:09.250Z,9.30
2023-04-15T22:53:35.950Z,8.98
2023-04-15T22:56:02.714Z,9.48
2023-04-15T22:58:32.124Z,9.57
2023-04-15T23:00:59.214Z,9.93
2023-04-15T23:03:26.011Z,9.57
2023-04-15T23:05:52.800Z,9.93
2023-04-15T23:08:19.374Z,10.50
2023-04-15T23:10:46.520Z,11.10
2023-04-15T23:13:13.212Z,10.50
2023-04-15T23:15:39.878Z,10.38
2023-04-15T23:18:06.611Z,11.20
2023-04-15T23:20:33.990Z,10.63
2023-04-15T23:23:00.707Z,10.63
2023-04-15T23:25:27.364Z,31.02
2023-04-15T23:27:53.970Z,10.05
2023-04-15T23:30:20.588Z,9.23
2023-04-15T23:32:47.255Z,10.23
2023-04-15T23:35:13.869Z,10.60
2023-04-15T23:37:40.655Z,8.95
2023-04-15T23:40:07.907Z,9.10
2023-04-15T23:42:34.551Z,9.70
2023-04-15T23:45:01.253Z,12.52
2023-04-15T23:47:27.875Z,11.30
2023-04-15T23:49:54.468Z,10.07
2023-04-15T23:52:21.180Z,10.48
2023-04-15T23:54:47.805Z,10.15
2023-04-15T23:57:14.488Z,9.50
2023-04-15T23:59:41.098Z,10.35
